createdAt,value
2023-02-11T00:01:15.189Z,2.16
2023-02-11T00:05:09.350Z,2.16
2023-02-11T00:09:09.295Z,2.16
2023-02-11T00:13:08.969Z,2.16
2023-02-11T00:17:09.896Z,2.16
2023-02-11T00:21:09.440Z,2.16
2023-02-11T00:25:09.597Z,2.16
2023-02-11T00:29:09.799Z,2.16
2023-02-11T00:33:09.704Z,2.16
2023-02-11T00:37:09.816Z,2.16
2023-02-11T00:41:08.859Z,2.16
2023-02-11T00:45:09.137Z,2.16
2023-02-11T00:49:09.407Z,2.16
2023-02-11T00:53:09.366Z,2.16
2023-02-11T00:57:09.396Z,2.16
2023-02-11T01:01:15.879Z,2.16
2023-02-11T01:05:09.721Z,2.16
2023-02-11T01:09:09.867Z,2.16
2023-02-11T01:13:10.430Z,2.16
2023-02-11T01:17:09.196Z,2.16
2023-02-11T01:21:09.309Z,2.16
2023-02-11T01:25:09.531Z,2.16
2023-02-11T01:29:10.152Z,2.16
2023-02-11T01:33:09.854Z,2.16
2023-02-11T01:37:09.823Z,2.16
2023-02-11T01:41:08.986Z,2.16
2023-02-11T01:45:09.200Z,2.16
2023-02-11T01:49:09.774Z,2.16
2023-02-11T01:53:09.412Z,2.16
2023-02-11T01:57:09.565Z,2.16
2023-02-11T02:01:12.183Z,2.16
2023-02-11T02:05:09.264Z,2.16
2023-02-11T02:09:09.579Z,2.16
2023-02-11T02:13:09.542Z,2.16
2023-02-11T02:17:10.089Z,2.16
2023-02-11T02:21:09.885Z,2.16
2023-02-11T02:25:10.726Z,2.16
2023-02-11T02:29:09.940Z,2.16
2023-02-11T02:33:21.913Z,2.16
2023-02-11T02:37:09.091Z,2.16
2023-02-11T02:41:09.420Z,2.16
2023-02-11T02:45:09.640Z,2.16
2023-02-11T02:49:09.493Z,2.16
2023-02-11T02:53:09.693Z,2.16
2023-02-11T02:57:09.601Z,2.16
2023-02-11T03:01:11.822Z,2.16
2023-02-11T03:05:09.174Z,2.16
2023-02-11T03:09:11.456Z,2.16
2023-02-11T03:13:09.648Z,2.16
2023-02-11T03:17:09.072Z,2.16
2023-02-11T03:21:08.994Z,2.16
2023-02-11T03:25:08.957Z,2.16
2023-02-11T03:29:09.610Z,2.16
2023-02-11T03:33:09.476Z,2.16
2023-02-11T03:37:09.441Z,2.16
2023-02-11T03:41:09.279Z,2.16
2023-02-11T03:45:09.497Z,2.16
2023-02-11T03:49:09.668Z,2.16
2023-02-11T03:53:09.753Z,2.16
2023-02-11T03:57:09.898Z,2.16
2023-02-11T04:01:12.762Z,2.16
2023-02-11T04:05:08.882Z,2.16
2023-02-11T04:09:08.973Z,2.16
2023-02-11T04:13:09.197Z,2.16
2023-02-11T04:17:09.749Z,2.16
2023-02-11T04:21:09.743Z,2.16
2023-02-11T04:25:09.807Z,2.16
2023-02-11T04:29:09.882Z,2.16
2023-02-11T04:33:09.593Z,2.16
2023-02-11T04:37:09.076Z,2.16
2023-02-11T04:41:09.354Z,2.16
2023-02-11T04:45:09.399Z,2.16
2023-02-11T04:49:09.761Z,2.16
2023-02-11T04:53:09.394Z,2.16
2023-02-11T04:57:09.846Z,2.16
2023-02-11T05:01:14.179Z,2.16
2023-02-11T05:05:09.982Z,2.16
2023-02-11T05:09:09.692Z,2.16
2023-02-11T05:13:09.746Z,2.16
2023-02-11T05:17:09.649Z,2.16
2023-02-11T05:21:09.645Z,2.16
2023-02-11T05:25:09.619Z,2.16
2023-02-11T05:29:09.413Z,2.16
2023-02-11T05:33:08.946Z,2.16
2023-02-11T05:37:09.361Z,2.16
2023-02-11T05:41:09.385Z,2.16
2023-02-11T05:45:13.083Z,2.16
2023-02-11T05:49:09.505Z,2.16
2023-02-11T05:53:10.366Z,2.16
2023-02-11T05:57:09.457Z,2.16
2023-02-11T06:01:12.513Z,2.16
2023-02-11T06:05:09.776Z,2.16
2023-02-11T06:09:12.947Z,2.16
2023-02-11T06:13:09.782Z,2.16
2023-02-11T06:17:10.191Z,2.16
2023-02-11T06:21:10.072Z,2.16
2023-02-11T06:25:39.935Z,2.16
2023-02-11T06:29:10.240Z,2.16
2023-02-11T06:33:36.078Z,2.16
2023-02-11T06:37:09.941Z,2.16
2023-02-11T06:41:10.148Z,2.16
2023-02-11T06:45:08.804Z,2.16
2023-02-11T06:49:08.927Z,2.16
2023-02-11T06:53:08.942Z,2.16
2023-02-11T06:57:09.200Z,2.16
2023-02-11T07:01:13.488Z,2.16
2023-02-11T07:05:09.471Z,2.16
2023-02-11T07:09:09.488Z,2.16
2023-02-11T07:13:10.199Z,2.16
2023-02-11T07:17:10.077Z,2.16
2023-02-11T07:21:09.729Z,2.16
2023-02-11T07:25:09.744Z,2.16
2023-02-11T07:29:09.681Z,2.16
2023-02-11T07:33:09.667Z,2.16
2023-02-11T07:37:09.193Z,2.16
2023-02-11T07:41:09.294Z,2.16
2023-02-11T07:45:12.984Z,2.16
2023-02-11T07:49:09.325Z,2.16
2023-02-11T07:53:09.184Z,2.16
2023-02-11T07:57:09.009Z,2.16
2023-02-11T08:01:12.751Z,2.16
2023-02-11T08:05:09.639Z,2.16
2023-02-11T08:09:09.911Z,2.16
2023-02-11T08:13:09.735Z,2.16
2023-02-11T08:17:10.303Z,2.16
2023-02-11T08:21:09.451Z,2.16
2023-02-11T08:25:09.362Z,2.16
2023-02-11T08:29:09.853Z,2.16
2023-02-11T08:33:09.288Z,2.16
2023-02-11T08:37:08.957Z,2.16
2023-02-11T08:41:09.986Z,2.16
2023-02-11T08:45:09.752Z,2.16
2023-02-11T08:49:09.632Z,2.16
2023-02-11T08:53:09.480Z,2.16
2023-02-11T08:57:10.001Z,2.16
2023-02-11T09:01:16.369Z,2.16
2023-02-11T09:05:09.436Z,2.16
2023-02-11T09:09:09.459Z,2.16
2023-02-11T09:13:09.641Z,0.12
2023-02-11T09:17:10.014Z,0.12
2023-02-11T09:21:09.885Z,0.12
2023-02-11T09:25:09.706Z,0.12
2023-02-11T09:29:10.271Z,0.12
2023-02-11T09:33:09.841Z,0.12
2023-02-11T09:37:09.614Z,0.12
2023-02-11T09:41:09.684Z,0.12
2023-02-11T09:45:09.603Z,0.12
2023-02-11T09:49:13.778Z,0.12
2023-02-11T09:53:09.607Z,0.12
2023-02-11T09:57:19.507Z,0.12
2023-02-11T10:01:09.061Z,0.12
2023-02-11T10:05:09.582Z,0.12
2023-02-11T10:09:12.838Z,0.12
2023-02-11T10:13:09.553Z,0.12
2023-02-11T10:17:09.968Z,0.12
2023-02-11T10:21:13.747Z,0.12
2023-02-11T10:25:09.831Z,4.67
2023-02-11T10:29:10.244Z,4.67
2023-02-11T10:33:09.215Z,0.03
2023-02-11T10:37:09.143Z,1.84
2023-02-11T10:41:09.264Z,1.84
2023-02-11T10:45:09.420Z,1.84
2023-02-11T10:49:12.803Z,1.84
2023-02-11T10:53:09.586Z,1.84
2023-02-11T10:57:09.827Z,1.84
2023-02-11T11:01:24.742Z,1.84
2023-02-11T11:05:10.065Z,1.84
2023-02-11T11:09:09.856Z,1.84
2023-02-11T11:13:09.917Z,1.84
2023-02-11T11:17:10.468Z,1.84
2023-02-11T11:21:09.325Z,1.84
2023-02-11T11:25:12.113Z,1.84
2023-02-11T11:29:09.918Z,1.84
2023-02-11T11:33:09.946Z,1.84
2023-02-11T11:37:09.737Z,1.84
2023-02-11T11:41:09.948Z,1.84
2023-02-11T11:45:09.740Z,1.84
2023-02-11T11:49:09.756Z,1.84
2023-02-11T11:53:09.792Z,1.84
2023-02-11T11:57:09.607Z,1.84
2023-02-11T12:01:14.361Z,1.84
2023-02-11T12:05:09.799Z,1.84
2023-02-11T12:09:09.449Z,1.84
2023-02-11T12:13:09.541Z,1.84
2023-02-11T12:17:11.015Z,1.84
2023-02-11T12:21:09.641Z,1.84
2023-02-11T12:25:12.587Z,1.84
2023-02-11T12:29:09.998Z,1.84
2023-02-11T12:33:09.974Z,1.84
2023-02-11T12:37:09.333Z,1.84
2023-02-11T12:41:09.557Z,1.84
2023-02-11T12:45:09.504Z,1.84
2023-02-11T12:49:09.765Z,1.84
2023-02-11T12:53:09.722Z,1.84
2023-02-11T12:57:09.575Z,1.84
2023-02-11T13:01:12.106Z,1.84
2023-02-11T13:05:10.704Z,1.84
2023-02-11T13:09:09.687Z,1.84
2023-02-11T13:13:09.712Z,0.04
2023-02-11T13:17:10.334Z,0.02
2023-02-11T13:21:09.539Z,2.2
2023-02-11T13:25:09.573Z,0.02
2023-02-11T13:29:10.156Z,0.02
2023-02-11T13:33:09.602Z,1.3
2023-02-11T13:37:12.390Z,0.01
2023-02-11T13:41:09.577Z,0.01
2023-02-11T13:45:09.288Z,0.01
2023-02-11T13:49:09.470Z,0.01
2023-02-11T13:53:09.573Z,0.01
2023-02-11T13:57:09.819Z,0.01
2023-02-11T14:01:13.205Z,0.01
2023-02-11T14:05:11.672Z,0.01
2023-02-11T14:09:12.816Z,0.01
2023-02-11T14:13:08.838Z,0.01
2023-02-11T14:17:23.279Z,0.01
2023-02-11T14:21:09.350Z,0.01
2023-02-11T14:25:09.876Z,0.01
2023-02-11T14:29:10.211Z,0.01
2023-02-11T14:33:13.136Z,0.01
2023-02-11T14:37:09.259Z,0.01
2023-02-11T14:41:09.555Z,0.01
2023-02-11T14:45:09.532Z,4.64
2023-02-11T14:49:09.371Z,2.79
2023-02-11T14:53:09.855Z,2.79
2023-02-11T14:57:09.561Z,0.02
2023-02-11T15:01:16.003Z,0.02
2023-02-11T15:05:08.967Z,0.02
2023-02-11T15:09:09.349Z,0.02
2023-02-11T15:13:09.481Z,0.02
2023-02-11T15:17:09.960Z,0.02
2023-02-11T15:21:09.600Z,0.02
2023-02-11T15:25:09.450Z,0.02
2023-02-11T15:29:09.767Z,0.02
2023-02-11T15:33:10.248Z,0.02
2023-02-11T15:37:09.401Z,0.02
2023-02-11T15:41:09.395Z,0.02
2023-02-11T15:45:17.096Z,0.02
2023-02-11T15:49:09.289Z,0.02
2023-02-11T15:53:09.422Z,0.02
2023-02-11T15:57:09.293Z,0.02
2023-02-11T16:01:13.734Z,0.02
2023-02-11T16:05:09.755Z,0.02
2023-02-11T16:09:09.595Z,0.02
2023-02-11T16:13:09.491Z,0.02
2023-02-11T16:17:09.748Z,0.02
2023-02-11T16:21:09.989Z,0.02
2023-02-11T16:25:09.270Z,0.02
2023-02-11T16:29:09.578Z,0.02
2023-02-11T16:33:09.511Z,0.02
2023-02-11T16:37:10.628Z,0.02
2023-02-11T16:41:09.429Z,0.02
2023-02-11T16:45:09.305Z,0.02
2023-02-11T16:49:09.405Z,0.02
2023-02-11T16:53:09.467Z,0.02
2023-02-11T16:57:09.496Z,0.02
2023-02-11T17:01:14.060Z,0.02
2023-02-11T17:05:10.188Z,0.02
2023-02-11T17:09:09.184Z,0.02
2023-02-11T17:13:09.429Z,0.02
2023-02-11T17:17:09.598Z,0.02
2023-02-11T17:21:09.199Z,0.02
2023-02-11T17:25:09.406Z,0.02
2023-02-11T17:29:09.661Z,0.02
2023-02-11T17:33:09.817Z,0.02
2023-02-11T17:37:09.346Z,0.02
2023-02-11T17:41:09.389Z,0.02
2023-02-11T17:45:09.436Z,0.02
2023-02-11T17:49:09.647Z,0.02
2023-02-11T17:53:09.459Z,0.02
2023-02-11T17:57:10.069Z,0.02
2023-02-11T18:01:12.578Z,0.02
2023-02-11T18:05:10.119Z,0.02
2023-02-11T18:09:10.028Z,0.02
2023-02-11T18:13:09.791Z,0.02
2023-02-11T18:17:10.530Z,0.02
2023-02-11T18:21:09.703Z,0.02
2023-02-11T18:25:14.561Z,0.02
2023-02-11T18:29:09.853Z,0.02
2023-02-11T18:33:09.990Z,0.02
2023-02-11T18:37:09.769Z,0.02
2023-02-11T18:41:09.754Z,0.02
2023-02-11T18:45:09.850Z,0.02
2023-02-11T18:49:09.641Z,0.02
2023-02-11T18:53:09.775Z,0.02
2023-02-11T18:57:09.868Z,0.02
2023-02-11T19:01:16.707Z,0.02
2023-02-11T19:05:12.387Z,0.02
2023-02-11T19:09:14.893Z,0.02
2023-02-11T19:13:10.001Z,0.02
2023-02-11T19:17:10.806Z,0.02
2023-02-11T19:21:10.679Z,0.02
2023-02-11T19:25:09.861Z,0.02
2023-02-11T19:29:10.811Z,0.02
2023-02-11T19:33:11.901Z,0.02
2023-02-11T19:37:11.762Z,0.02
2023-02-11T19:41:09.499Z,0.02
2023-02-11T19:45:10.082Z,0.02
2023-02-11T19:49:10.359Z,0.02
2023-02-11T19:53:09.746Z,0.02
2023-02-11T19:57:09.846Z,0.02
2023-02-11T20:01:12.726Z,0.02
2023-02-11T20:05:10.078Z,0.02
2023-02-11T20:09:10.569Z,0.02
2023-02-11T20:13:13.354Z,0.02
2023-02-11T20:17:30.423Z,0.02
2023-02-11T20:21:11.052Z,0.02
2023-02-11T20:25:10.908Z,0.02
2023-02-11T20:29:11.805Z,0.02
2023-02-11T20:33:12.679Z,0.02
2023-02-11T20:37:10.772Z,0.02
2023-02-11T20:41:12.208Z,0.02
2023-02-11T20:45:11.104Z,0.02
2023-02-11T20:49:19.488Z,0.02
2023-02-11T20:53:10.976Z,0.02
2023-02-11T20:57:11.713Z,0.02
2023-02-11T21:01:13.775Z,0.02
2023-02-11T21:05:09.896Z,0.02
2023-02-11T21:09:09.801Z,0.02
2023-02-11T21:13:12.437Z,0.02
2023-02-11T21:17:10.048Z,0.02
2023-02-11T21:21:09.668Z,0.02
2023-02-11T21:25:09.736Z,0.02
2023-02-11T21:29:10.552Z,0.02
2023-02-11T21:33:09.452Z,0.02
2023-02-11T21:37:09.417Z,0.02
2023-02-11T21:41:09.538Z,0.02
2023-02-11T21:45:09.592Z,0.02
2023-02-11T21:49:09.769Z,0.02
2023-02-11T21:53:09.858Z,0.02
2023-02-11T21:57:09.775Z,0.02
2023-02-11T22:01:13.393Z,0.02
2023-02-11T22:05:09.641Z,0.02
2023-02-11T22:09:09.238Z,0.02
2023-02-11T22:13:09.536Z,0.02
2023-02-11T22:17:10.083Z,0.02
2023-02-11T22:21:09.809Z,0.02
2023-02-11T22:25:09.725Z,0.02
2023-02-11T22:29:09.212Z,0.02
2023-02-11T22:33:09.202Z,0.02
2023-02-11T22:37:09.061Z,0.02
2023-02-11T22:41:09.527Z,0.02
2023-02-11T22:45:09.734Z,0.02
2023-02-11T22:49:09.831Z,0.02
2023-02-11T22:53:09.636Z,0.02
2023-02-11T22:57:11.828Z,0.02
2023-02-11T23:01:09.329Z,0.02
2023-02-11T23:05:12.412Z,0.02
2023-02-11T23:09:09.676Z,0.02
2023-02-11T23:13:09.561Z,0.02
2023-02-11T23:17:10.391Z,0.02
2023-02-11T23:21:12.400Z,0.02
2023-02-11T23:25:08.997Z,0.02
2023-02-11T23:29:09.404Z,0.02
2023-02-11T23:33:09.705Z,0.02
2023-02-11T23:37:09.396Z,0.02
2023-02-11T23:41:09.636Z,0.02
2023-02-11T23:45:09.754Z,0.02
2023-02-11T23:49:09.985Z,0.02
2023-02-11T23:53:09.040Z,0.02
2023-02-11T23:57:08.824Z,0.02
